sensor_id;sensor_type;location;lat;lon;timestamp;pressure;altitude;pressure_sealevel;temperature;humidity
31337;BME280;22846;42.654;23.314;2023-04-04T00:01:51;93061.81;;;23.94;53.33
31337;BME280;22846;42.654;23.314;2023-04-04T00:04:16;93050.72;;;23.84;53.31
31337;BME280;22846;42.654;23.314;2023-04-04T00:06:42;93049.41;;;23.79;52.95
31337;BME280;22846;42.654;23.314;2023-04-04T00:09:10;93070.94;;;23.92;52.83
31337;BME280;22846;42.654;23.314;2023-04-04T00:11:37;93075.19;;;23.92;53.33
31337;BME280;22846;42.654;23.314;2023-04-04T00:14:02;93080.34;;;23.91;52.93
31337;BME280;22846;42.654;23.314;2023-04-04T00:16:29;93080.09;;;23.89;53.43
31337;BME280;22846;42.654;23.314;2023-04-04T00:18:54;93090.03;;;23.92;53.08
31337;BME280;22846;42.654;23.314;2023-04-04T00:21:20;93075.84;;;23.88;52.87
31337;BME280;22846;42.654;23.314;2023-04-04T00:23:45;93054.91;;;23.70;53.38
31337;BME280;22846;42.654;23.314;2023-04-04T00:26:11;93084.03;;;23.88;52.79
31337;BME280;22846;42.654;23.314;2023-04-04T00:28:36;93067.38;;;23.86;53.04
31337;BME280;22846;42.654;23.314;2023-04-04T00:31:02;93074.34;;;23.87;52.76
31337;BME280;22846;42.654;23.314;2023-04-04T00:33:27;93061.44;;;23.87;53.10
31337;BME280;22846;42.654;23.314;2023-04-04T00:35:53;93057.97;;;23.87;52.85
31337;BME280;22846;42.654;23.314;2023-04-04T00:38:18;93054.97;;;23.85;53.24
31337;BME280;22846;42.654;23.314;2023-04-04T00:40:46;93042.00;;;23.80;52.81
31337;BME280;22846;42.654;23.314;2023-04-04T00:43:13;93054.47;;;23.86;53.08
31337;BME280;22846;42.654;23.314;2023-04-04T00:45:38;93055.25;;;23.87;53.24
31337;BME280;22846;42.654;23.314;2023-04-04T00:48:05;93049.03;;;23.86;53.15
31337;BME280;22846;42.654;23.314;2023-04-04T00:50:30;93044.03;;;23.85;53.13
31337;BME280;22846;42.654;23.314;2023-04-04T00:52:56;93034.84;;;23.82;52.84
31337;BME280;22846;42.654;23.314;2023-04-04T00:55:22;93031.72;;;23.75;52.97
31337;BME280;22846;42.654;23.314;2023-04-04T00:57:48;93037.84;;;23.84;53.22
31337;BME280;22846;42.654;23.314;2023-04-04T01:00:14;93039.53;;;23.82;53.14
31337;BME280;22846;42.654;23.314;2023-04-04T01:02:40;93050.72;;;23.84;52.71
31337;BME280;22846;42.654;23.314;2023-04-04T01:05:07;93048.19;;;23.80;53.39
31337;BME280;22846;42.654;23.314;2023-04-04T01:07:34;93047.44;;;23.80;52.95
31337;BME280;22846;42.654;23.314;2023-04-04T01:10:00;93055.88;;;23.82;52.90
31337;BME280;22846;42.654;23.314;2023-04-04T01:12:27;93057.88;;;23.81;52.88
31337;BME280;22846;42.654;23.314;2023-04-04T01:14:52;93048.72;;;23.70;52.74
31337;BME280;22846;42.654;23.314;2023-04-04T01:17:18;93041.75;;;23.69;52.80
31337;BME280;22846;42.654;23.314;2023-04-04T01:22:22;93036.78;;;23.67;52.97
31337;BME280;22846;42.654;23.314;2023-04-04T01:24:48;93057.13;;;23.81;53.15
31337;BME280;22846;42.654;23.314;2023-04-04T01:27:13;93050.06;;;23.74;53.18
31337;BME280;22846;42.654;23.314;2023-04-04T01:29:40;93061.81;;;23.80;53.24
31337;BME280;22846;42.654;23.314;2023-04-04T01:32:16;93060.78;;;23.78;53.03
31337;BME280;22846;42.654;23.314;2023-04-04T01:38:06;93046.38;;;23.77;53.32
31337;BME280;22846;42.654;23.314;2023-04-04T01:40:32;93023.16;;;23.67;53.19
31337;BME280;22846;42.654;23.314;2023-04-04T01:43:01;93039.91;;;23.75;52.72
31337;BME280;22846;42.654;23.314;2023-04-04T01:45:27;93030.50;;;23.76;52.76
31337;BME280;22846;42.654;23.314;2023-04-04T01:47:54;93032.00;;;23.77;53.21
31337;BME280;22846;42.654;23.314;2023-04-04T01:50:21;93029.28;;;23.77;52.86
31337;BME280;22846;42.654;23.314;2023-04-04T01:52:47;93014.13;;;23.76;53.38
31337;BME280;22846;42.654;23.314;2023-04-04T01:55:12;92997.28;;;23.63;53.40
31337;BME280;22846;42.654;23.314;2023-04-04T01:57:38;93014.13;;;23.76;53.39
31337;BME280;22846;42.654;23.314;2023-04-04T02:00:03;93005.97;;;23.76;53.08
31337;BME280;22846;42.654;23.314;2023-04-04T02:02:29;92998.13;;;23.69;53.23
31337;BME280;22846;42.654;23.314;2023-04-04T02:04:55;93003.72;;;23.74;53.10
31337;BME280;22846;42.654;23.314;2023-04-04T02:07:20;93000.38;;;23.70;53.40
31337;BME280;22846;42.654;23.314;2023-04-04T02:09:46;93018.09;;;23.75;53.27
31337;BME280;22846;42.654;23.314;2023-04-04T02:12:11;93013.81;;;23.74;53.33
31337;BME280;22846;42.654;23.314;2023-04-04T02:14:36;93020.06;;;23.74;53.29
31337;BME280;22846;42.654;23.314;2023-04-04T02:17:02;93009.31;;;23.71;53.03
31337;BME280;22846;42.654;23.314;2023-04-04T02:19:27;93016.00;;;23.70;53.29
31337;BME280;22846;42.654;23.314;2023-04-04T02:21:53;92983.38;;;23.61;53.57
31337;BME280;22846;42.654;23.314;2023-04-04T02:24:18;93003.38;;;23.72;53.30
31337;BME280;22846;42.654;23.314;2023-04-04T02:26:43;92998.69;;;23.73;53.06
31337;BME280;22846;42.654;23.314;2023-04-04T02:29:09;93006.59;;;23.71;53.10
31337;BME280;22846;42.654;23.314;2023-04-04T02:31:34;92998.41;;;23.71;53.22
31337;BME280;22846;42.654;23.314;2023-04-04T02:34:00;93011.56;;;23.72;53.06
31337;BME280;22846;42.654;23.314;2023-04-04T02:36:25;93013.56;;;23.72;53.19
31337;BME280;22846;42.654;23.314;2023-04-04T02:38:51;92998.13;;;23.69;53.06
31337;BME280;22846;42.654;23.314;2023-04-04T02:41:17;93000.56;;;23.67;53.37
31337;BME280;22846;42.654;23.314;2023-04-04T02:43:42;93005.28;;;23.66;53.44
31337;BME280;22846;42.654;23.314;2023-04-04T02:46:08;93004.50;;;23.66;53.14
31337;BME280;22846;42.654;23.314;2023-04-04T02:48:33;93006.31;;;23.69;53.35
31337;BME280;22846;42.654;23.314;2023-04-04T02:50:59;93010.53;;;23.70;53.11
31337;BME280;22846;42.654;23.314;2023-04-04T02:53:25;93013.28;;;23.70;52.97
31337;BME280;22846;42.654;23.314;2023-04-04T02:55:51;93013.00;;;23.68;53.61
31337;BME280;22846;42.654;23.314;2023-04-04T02:58:17;93003.59;;;23.69;53.23
31337;BME280;22846;42.654;23.314;2023-04-04T03:00:43;93017.97;;;23.69;53.37
31337;BME280;22846;42.654;23.314;2023-04-04T03:03:08;93010.75;;;23.66;53.36
31337;BME280;22846;42.654;23.314;2023-04-04T03:05:34;93009.69;;;23.64;53.21
31337;BME280;22846;42.654;23.314;2023-04-04T03:07:59;93015.34;;;23.75;53.14
31337;BME280;22846;42.654;23.314;2023-04-04T03:10:27;93012.53;;;23.84;52.13
31337;BME280;22846;42.654;23.314;2023-04-04T03:12:57;93021.09;;;23.91;51.94
31337;BME280;22846;42.654;23.314;2023-04-04T03:15:22;93019.59;;;23.90;52.76
31337;BME280;22846;42.654;23.314;2023-04-04T03:17:48;93017.41;;;23.94;52.66
31337;BME280;22846;42.654;23.314;2023-04-04T03:20:14;93023.91;;;23.96;52.07
31337;BME280;22846;42.654;23.314;2023-04-04T03:22:39;93021.00;;;24.00;52.19
31337;BME280;22846;42.654;23.314;2023-04-04T03:25:06;93014.84;;;24.05;51.46
31337;BME280;22846;42.654;23.314;2023-04-04T03:27:32;93020.97;;;24.14;51.59
31337;BME280;22846;42.654;23.314;2023-04-04T03:29:58;93019.59;;;24.24;51.91
31337;BME280;22846;42.654;23.314;2023-04-04T03:32:24;93024.94;;;24.33;51.73
31337;BME280;22846;42.654;23.314;2023-04-04T03:34:49;93034.00;;;24.39;51.36
31337;BME280;22846;42.654;23.314;2023-04-04T03:37:16;93038.13;;;24.49;51.03
31337;BME280;22846;42.654;23.314;2023-04-04T03:39:41;93035.75;;;24.57;51.02
31337;BME280;22846;42.654;23.314;2023-04-04T03:42:07;93033.38;;;24.64;50.76
31337;BME280;22846;42.654;23.314;2023-04-04T03:44:32;93031.47;;;24.70;50.97
31337;BME280;22846;42.654;23.314;2023-04-04T03:46:58;93013.03;;;24.65;50.67
31337;BME280;22846;42.654;23.314;2023-04-04T03:49:23;93016.84;;;24.73;50.73
31337;BME280;22846;42.654;23.314;2023-04-04T03:51:48;93031.97;;;24.88;50.22
31337;BME280;22846;42.654;23.314;2023-04-04T03:54:14;93021.78;;;24.89;50.00
31337;BME280;22846;42.654;23.314;2023-04-04T03:56:40;93028.31;;;24.97;50.13
31337;BME280;22846;42.654;23.314;2023-04-04T03:59:05;93033.09;;;25.02;50.25
31337;BME280;22846;42.654;23.314;2023-04-04T04:01:31;93037.13;;;25.06;50.04
31337;BME280;22846;42.654;23.314;2023-04-04T04:03:56;93029.03;;;25.12;50.25
31337;BME280;22846;42.654;23.314;2023-04-04T04:06:22;93034.06;;;25.19;50.12
31337;BME280;22846;42.654;23.314;2023-04-04T04:08:47;93034.63;;;25.23;49.71
31337;BME280;22846;42.654;23.314;2023-04-04T04:11:13;93013.19;;;25.16;49.60
31337;BME280;22846;42.654;23.314;2023-04-04T04:13:38;93020.25;;;25.28;49.37
31337;BME280;22846;42.654;23.314;2023-04-04T04:16:04;93016.28;;;25.29;49.65
31337;BME280;22846;42.654;23.314;2023-04-04T04:18:30;93022.59;;;25.35;50.21
31337;BME280;22846;42.654;23.314;2023-04-04T04:20:59;93012.53;;;25.26;50.30
31337;BME280;22846;42.654;23.314;2023-04-04T04:23:29;93036.84;;;25.44;50.67
31337;BME280;22846;42.654;23.314;2023-04-04T04:25:54;93039.38;;;25.48;51.37
31337;BME280;22846;42.654;23.314;2023-04-04T04:28:20;93042.38;;;25.50;50.76
31337;BME280;22846;42.654;23.314;2023-04-04T04:30:45;93047.84;;;25.50;50.63
31337;BME280;22846;42.654;23.314;2023-04-04T04:33:11;93051.06;;;25.48;50.53
31337;BME280;22846;42.654;23.314;2023-04-04T04:35:37;93051.06;;;25.48;50.32
31337;BME280;22846;42.654;23.314;2023-04-04T04:38:04;93052.31;;;25.47;50.23
31337;BME280;22846;42.654;23.314;2023-04-04T04:40:30;93049.78;;;25.44;50.60
31337;BME280;22846;42.654;23.314;2023-04-04T04:42:55;93051.97;;;25.40;50.66
31337;BME280;22846;42.654;23.314;2023-04-04T04:45:21;93068.84;;;25.38;50.80
31337;BME280;22846;42.654;23.314;2023-04-04T04:47:46;93063.81;;;25.31;47.00
31337;BME280;22846;42.654;23.314;2023-04-04T04:50:11;93054.72;;;25.20;46.97
31337;BME280;22846;42.654;23.314;2023-04-04T04:52:37;93057.31;;;25.09;48.02
31337;BME280;22846;42.654;23.314;2023-04-04T04:55:04;93079.00;;;25.12;48.44
31337;BME280;22846;42.654;23.314;2023-04-04T04:57:30;93063.72;;;25.06;48.51
31337;BME280;22846;42.654;23.314;2023-04-04T04:59:56;93075.81;;;24.99;49.38
31337;BME280;22846;42.654;23.314;2023-04-04T05:02:21;93084.41;;;24.92;49.44
31337;BME280;22846;42.654;23.314;2023-04-04T05:04:46;93084.34;;;24.87;48.93
31337;BME280;22846;42.654;23.314;2023-04-04T05:07:12;93085.75;;;24.82;49.45
31337;BME280;22846;42.654;23.314;2023-04-04T05:09:37;93088.69;;;24.79;49.35
31337;BME280;22846;42.654;23.314;2023-04-04T05:12:03;93087.59;;;24.71;49.23
31337;BME280;22846;42.654;23.314;2023-04-04T05:14:29;93092.78;;;24.69;50.59
31337;BME280;22846;42.654;23.314;2023-04-04T05:16:54;93097.41;;;24.63;51.12
31337;BME280;22846;42.654;23.314;2023-04-04T05:19:20;93095.91;;;24.62;51.12
31337;BME280;22846;42.654;23.314;2023-04-04T05:21:45;93102.31;;;24.59;51.30
31337;BME280;22846;42.654;23.314;2023-04-04T05:24:11;93099.25;;;24.52;51.18
31337;BME280;22846;42.654;23.314;2023-04-04T05:26:37;93094.72;;;24.49;51.41
31337;BME280;22846;42.654;23.314;2023-04-04T05:29:02;93094.06;;;24.39;51.59
31337;BME280;22846;42.654;23.314;2023-04-04T05:31:28;93098.56;;;24.42;52.17
31337;BME280;22846;42.654;23.314;2023-04-04T05:33:53;93102.81;;;24.43;51.91
31337;BME280;22846;42.654;23.314;2023-04-04T05:36:18;93102.50;;;24.41;51.89
31337;BME280;22846;42.654;23.314;2023-04-04T05:38:44;93104.22;;;24.39;51.82
31337;BME280;22846;42.654;23.314;2023-04-04T05:41:09;93103.47;;;24.38;52.00
31337;BME280;22846;42.654;23.314;2023-04-04T05:43:35;93106.41;;;24.35;52.11
31337;BME280;22846;42.654;23.314;2023-04-04T05:46:01;93118.53;;;24.34;52.00
31337;BME280;22846;42.654;23.314;2023-04-04T05:48:26;93120.50;;;24.33;52.12
31337;BME280;22846;42.654;23.314;2023-04-04T05:50:51;93119.47;;;24.31;52.28
31337;BME280;22846;42.654;23.314;2023-04-04T05:53:17;93118.72;;;24.30;52.65
31337;BME280;22846;42.654;23.314;2023-04-04T05:55:42;93125.91;;;24.28;52.33
31337;BME280;22846;42.654;23.314;2023-04-04T05:58:08;93122.41;;;24.27;52.45
31337;BME280;22846;42.654;23.314;2023-04-04T06:00:33;93122.41;;;24.27;52.69
31337;BME280;22846;42.654;23.314;2023-04-04T06:02:59;93106.31;;;24.15;52.63
31337;BME280;22846;42.654;23.314;2023-04-04T06:05:24;93129.09;;;24.26;52.74
31337;BME280;22846;42.654;23.314;2023-04-04T06:07:49;93121.00;;;24.17;52.77
31337;BME280;22846;42.654;23.314;2023-04-04T06:10:15;93124.00;;;24.19;52.63
31337;BME280;22846;42.654;23.314;2023-04-04T06:12:41;93114.22;;;24.13;52.87
31337;BME280;22846;42.654;23.314;2023-04-04T06:15:06;93131.53;;;24.24;52.75
31337;BME280;22846;42.654;23.314;2023-04-04T06:17:32;93137.47;;;24.23;52.65
31337;BME280;22846;42.654;23.314;2023-04-04T06:19:57;93132.00;;;24.23;52.88
31337;BME280;22846;42.654;23.314;2023-04-04T06:22:23;93133.22;;;24.22;52.72
31337;BME280;22846;42.654;23.314;2023-04-04T06:24:48;93118.16;;;24.12;52.77
31337;BME280;22846;42.654;23.314;2023-04-04T06:27:13;93134.00;;;24.22;53.11
31337;BME280;22846;42.654;23.314;2023-04-04T06:29:39;93137.94;;;24.21;53.21
31337;BME280;22846;42.654;23.314;2023-04-04T06:32:05;93118.34;;;24.08;53.28
31337;BME280;22846;42.654;23.314;2023-04-04T06:34:31;93150.81;;;24.21;52.81
31337;BME280;22846;42.654;23.314;2023-04-04T06:36:56;93156.28;;;24.21;53.09
31337;BME280;22846;42.654;23.314;2023-04-04T06:39:22;93154.31;;;24.21;52.83
31337;BME280;22846;42.654;23.314;2023-04-04T06:41:47;93169.19;;;24.20;52.79
31337;BME280;22846;42.654;23.314;2023-04-04T06:44:13;93175.13;;;24.19;53.14
31337;BME280;22846;42.654;23.314;2023-04-04T06:46:38;93183.75;;;24.17;53.03
31337;BME280;22846;42.654;23.314;2023-04-04T06:49:04;93172.38;;;24.04;53.10
31337;BME280;22846;42.654;23.314;2023-04-04T06:51:32;93190.19;;;24.14;53.12
31337;BME280;22846;42.654;23.314;2023-04-04T06:53:59;93191.66;;;24.15;53.14
31337;BME280;22846;42.654;23.314;2023-04-04T06:56:25;93204.56;;;24.15;52.65
31337;BME280;22846;42.654;23.314;2023-04-04T06:58:51;93202.31;;;24.13;52.52
31337;BME280;22846;42.654;23.314;2023-04-04T07:01:16;93200.13;;;24.03;52.70
31337;BME280;22846;42.654;23.314;2023-04-04T07:03:42;93232.03;;;24.11;52.74
31337;BME280;22846;42.654;23.314;2023-04-04T07:06:09;93235.69;;;24.08;52.52
31337;BME280;22846;42.654;23.314;2023-04-04T07:08:34;93232.03;;;23.97;52.47
31337;BME280;22846;42.654;23.314;2023-04-04T07:11:00;93267.22;;;24.09;52.45
31337;BME280;22846;42.654;23.314;2023-04-04T07:13:25;93271.19;;;24.08;52.57
31337;BME280;22846;42.654;23.314;2023-04-04T07:15:51;93276.63;;;24.08;52.57
31337;BME280;22846;42.654;23.314;2023-04-04T07:18:17;93277.84;;;24.07;52.12
31337;BME280;22846;42.654;23.314;2023-04-04T07:20:45;93283.78;;;24.06;52.58
31337;BME280;22846;42.654;23.314;2023-04-04T07:23:10;93279.56;;;24.05;52.25
31337;BME280;22846;42.654;23.314;2023-04-04T07:25:37;93289.72;;;24.04;52.42
31337;BME280;22846;42.654;23.314;2023-04-04T07:28:02;93295.19;;;24.04;52.12
31337;BME280;22846;42.654;23.314;2023-04-04T07:30:28;93298.66;;;24.05;52.07
31337;BME280;22846;42.654;23.314;2023-04-04T07:32:57;93307.31;;;24.03;52.21
31337;BME280;22846;42.654;23.314;2023-04-04T07:35:23;93302.47;;;23.98;52.44
31337;BME280;22846;42.654;23.314;2023-04-04T07:37:48;93304.75;;;24.00;52.18
31337;BME280;22846;42.654;23.314;2023-04-04T07:40:15;93310.66;;;23.98;52.61
31337;BME280;22846;42.654;23.314;2023-04-04T07:42:47;93311.16;;;23.97;52.06
31337;BME280;22846;42.654;23.314;2023-04-04T07:45:16;93324.59;;;24.00;52.32
31337;BME280;22846;42.654;23.314;2023-04-04T07:47:43;93316.13;;;23.98;52.24
31337;BME280;22846;42.654;23.314;2023-04-04T07:50:09;93325.09;;;23.99;52.10
31337;BME280;22846;42.654;23.314;2023-04-04T07:52:35;93315.56;;;23.94;52.42
31337;BME280;22846;42.654;23.314;2023-04-04T07:55:00;93319.69;;;23.90;52.44
31337;BME280;22846;42.654;23.314;2023-04-04T07:57:27;93336.91;;;23.96;52.19
31337;BME280;22846;42.654;23.314;2023-04-04T07:59:53;93344.19;;;23.99;51.89
31337;BME280;22846;42.654;23.314;2023-04-04T08:02:18;93343.41;;;23.98;51.92
31337;BME280;22846;42.654;23.314;2023-04-04T08:04:43;93346.16;;;23.98;52.20
31337;BME280;22846;42.654;23.314;2023-04-04T08:07:09;93349.34;;;23.97;52.19
31337;BME280;22846;42.654;23.314;2023-04-04T08:09:35;93353.00;;;23.94;52.31
31337;BME280;22846;42.654;23.314;2023-04-04T08:12:01;93352.06;;;23.97;51.75
31337;BME280;22846;42.654;23.314;2023-04-04T08:14:27;93353.28;;;23.96;51.73
31337;BME280;22846;42.654;23.314;2023-04-04T08:16:52;93351.34;;;23.96;52.21
31337;BME280;22846;42.654;23.314;2023-04-04T08:19:18;93352.56;;;23.95;51.86
31337;BME280;22846;42.654;23.314;2023-04-04T08:21:44;93361.66;;;23.92;51.94
31337;BME280;22846;42.654;23.314;2023-04-04T08:24:11;93371.66;;;23.95;52.15
31337;BME280;22846;42.654;23.314;2023-04-04T08:26:36;93368.03;;;23.90;52.26
31337;BME280;22846;42.654;23.314;2023-04-04T08:29:02;93363.34;;;23.90;51.67
31337;BME280;22846;42.654;23.314;2023-04-04T08:31:27;93377.47;;;23.89;51.79
31337;BME280;22846;42.654;23.314;2023-04-04T08:33:54;93382.25;;;23.93;51.77
31337;BME280;22846;42.654;23.314;2023-04-04T08:36:20;93388.94;;;23.92;52.02
31337;BME280;22846;42.654;23.314;2023-04-04T08:38:45;93388.94;;;23.92;51.76
31337;BME280;22846;42.654;23.314;2023-04-04T08:41:11;93392.88;;;23.92;51.88
31337;BME280;22846;42.654;23.314;2023-04-04T08:43:38;93374.47;;;23.78;52.17
31337;BME280;22846;42.654;23.314;2023-04-04T08:46:06;93395.31;;;23.90;52.21
31337;BME280;22846;42.654;23.314;2023-04-04T08:48:33;93388.81;;;23.87;51.72
31337;BME280;22846;42.654;23.314;2023-04-04T08:51:00;93403.50;;;23.90;51.70
31337;BME280;22846;42.654;23.314;2023-04-04T08:53:28;93397.78;;;23.88;51.74
31337;BME280;22846;42.654;23.314;2023-04-04T08:55:53;93405.47;;;23.89;52.02
31337;BME280;22846;42.654;23.314;2023-04-04T08:58:19;93391.75;;;23.75;51.52
31337;BME280;22846;42.654;23.314;2023-04-04T09:00:45;93419.88;;;23.90;51.85
31337;BME280;22846;42.654;23.314;2023-04-04T09:03:23;93414.88;;;23.88;51.68
31337;BME280;22846;42.654;23.314;2023-04-04T09:05:49;93412.31;;;23.85;51.87
31337;BME280;22846;42.654;23.314;2023-04-04T09:08:16;93410.94;;;23.89;51.81
31337;BME280;22846;42.654;23.314;2023-04-04T09:10:42;93406.13;;;23.84;51.78
31337;BME280;22846;42.654;23.314;2023-04-04T09:13:09;93404.31;;;23.81;51.48
31337;BME280;22846;42.654;23.314;2023-04-04T09:15:37;93421.09;;;23.89;51.88
31337;BME280;22846;42.654;23.314;2023-04-04T09:18:03;93392.94;;;23.74;51.78
31337;BME280;22846;42.654;23.314;2023-04-04T09:22:57;93409.16;;;23.77;51.37
31337;BME280;22846;42.654;23.314;2023-04-04T09:25:23;93423.53;;;23.87;51.39
31337;BME280;22846;42.654;23.314;2023-04-04T09:27:48;93416.25;;;23.84;51.37
31337;BME280;22846;42.654;23.314;2023-04-04T09:30:14;93408.56;;;23.73;51.64
31337;BME280;22846;42.654;23.314;2023-04-04T09:32:40;93430.69;;;23.84;51.55
31337;BME280;22846;42.654;23.314;2023-04-04T09:35:05;93423.97;;;23.85;51.37
31337;BME280;22846;42.654;23.314;2023-04-04T09:37:31;93428.41;;;23.83;51.51
31337;BME280;22846;42.654;23.314;2023-04-04T09:39:56;93432.34;;;23.82;51.39
31337;BME280;22846;42.654;23.314;2023-04-04T09:42:23;93438.88;;;23.84;51.49
31337;BME280;22846;42.654;23.314;2023-04-04T09:44:53;93438.56;;;23.82;51.36
31337;BME280;22846;42.654;23.314;2023-04-04T09:47:26;93444.75;;;23.83;51.41
31337;BME280;22846;42.654;23.314;2023-04-04T09:49:52;93442.81;;;23.83;51.66
31337;BME280;22846;42.654;23.314;2023-04-04T09:52:19;93441.28;;;23.82;51.37
31337;BME280;22846;42.654;23.314;2023-04-04T09:54:58;93435.53;;;23.80;51.33
31337;BME280;22846;42.654;23.314;2023-04-04T09:57:45;93439.03;;;23.81;51.42
31337;BME280;22846;42.654;23.314;2023-04-04T10:00:11;93432.16;;;23.85;51.36
31337;BME280;22846;42.654;23.314;2023-04-04T10:02:38;93427.53;;;23.77;51.69
31337;BME280;22846;42.654;23.314;2023-04-04T10:05:09;93436.56;;;23.83;51.30
31337;BME280;22846;42.654;23.314;2023-04-04T10:07:38;93429.91;;;23.84;51.74
31337;BME280;22846;42.654;23.314;2023-04-04T10:10:07;93446.56;;;23.86;51.63
31337;BME280;22846;42.654;23.314;2023-04-04T10:12:33;93439.59;;;23.85;51.65
31337;BME280;22846;42.654;23.314;2023-04-04T10:14:59;93448.84;;;23.87;51.25
31337;BME280;22846;42.654;23.314;2023-04-04T10:17:52;93450.34;;;23.88;51.81
31337;BME280;22846;42.654;23.314;2023-04-04T10:20:18;93448.41;;;23.89;51.76
31337;BME280;22846;42.654;23.314;2023-04-04T10:22:45;93457.31;;;23.89;51.63
31337;BME280;22846;42.654;23.314;2023-04-04T10:25:11;93459.31;;;23.89;51.33
31337;BME280;22846;42.654;23.314;2023-04-04T10:27:36;93462.78;;;23.89;51.53
31337;BME280;22846;42.654;23.314;2023-04-04T10:30:03;93460.22;;;23.86;51.21
31337;BME280;22846;42.654;23.314;2023-04-04T10:35:16;93474.16;;;23.88;51.27
31337;BME280;22846;42.654;23.314;2023-04-04T10:37:48;93469.19;;;23.77;51.53
31337;BME280;22846;42.654;23.314;2023-04-04T10:40:17;93478.09;;;23.87;50.99
31337;BME280;22846;42.654;23.314;2023-04-04T10:42:46;93473.38;;;23.87;51.02
31337;BME280;22846;42.654;23.314;2023-04-04T10:45:14;93479.78;;;23.84;50.92
31337;BME280;22846;42.654;23.314;2023-04-04T10:47:41;93479.97;;;23.81;51.10
31337;BME280;22846;42.654;23.314;2023-04-04T10:50:08;93493.69;;;23.86;50.87
31337;BME280;22846;42.654;23.314;2023-04-04T10:52:37;93495.69;;;23.86;50.91
31337;BME280;22846;42.654;23.314;2023-04-04T10:55:05;93493.13;;;23.82;51.24
31337;BME280;22846;42.654;23.314;2023-04-04T10:57:42;93493.13;;;23.82;51.17
31337;BME280;22846;42.654;23.314;2023-04-04T11:00:15;93494.63;;;23.83;51.09
31337;BME280;22846;42.654;23.314;2023-04-04T11:02:59;93496.59;;;23.83;51.05
31337;BME280;22846;42.654;23.314;2023-04-04T11:05:32;93495.84;;;23.82;50.86
31337;BME280;22846;42.654;23.314;2023-04-04T11:08:06;93506.00;;;23.82;50.88
31337;BME280;22846;42.654;23.314;2023-04-04T11:10:40;93507.38;;;23.77;51.16
31337;BME280;22846;42.654;23.314;2023-04-04T11:13:12;93508.44;;;23.80;51.13
31337;BME280;22846;42.654;23.314;2023-04-04T11:16:11;93511.91;;;23.80;50.81
31337;BME280;22846;42.654;23.314;2023-04-04T11:21:10;93514.19;;;23.73;50.86
31337;BME280;22846;42.654;23.314;2023-04-04T11:29:04;93524.69;;;23.74;51.12
31337;BME280;22846;42.654;23.314;2023-04-04T11:31:44;93530.88;;;23.75;50.60
31337;BME280;22846;42.654;23.314;2023-04-04T11:34:13;93531.66;;;23.75;50.81
31337;BME280;22846;42.654;23.314;2023-04-04T11:39:26;93533.59;;;23.75;50.72
31337;BME280;22846;42.654;23.314;2023-04-04T11:42:11;93525.09;;;23.73;50.98
31337;BME280;22846;42.654;23.314;2023-04-04T11:47:13;93532.53;;;23.72;50.93
31337;BME280;22846;42.654;23.314;2023-04-04T11:49:40;93527.06;;;23.72;50.96
31337;BME280;22846;42.654;23.314;2023-04-04T11:54:33;93534.50;;;23.72;50.67
31337;BME280;22846;42.654;23.314;2023-04-04T11:56:59;93524.06;;;23.61;50.74
31337;BME280;22846;42.654;23.314;2023-04-04T11:59:26;93539.34;;;23.68;50.97
31337;BME280;22846;42.654;23.314;2023-04-04T12:01:52;93532.22;;;23.70;50.93
31337;BME280;22846;42.654;23.314;2023-04-04T12:04:19;93532.69;;;23.69;50.69
31337;BME280;22846;42.654;23.314;2023-04-04T12:06:49;93535.72;;;23.71;51.05
31337;BME280;22846;42.654;23.314;2023-04-04T12:09:16;93533.75;;;23.71;50.75
31337;BME280;22846;42.654;23.314;2023-04-04T12:11:45;93522.69;;;23.66;51.01
31337;BME280;22846;42.654;23.314;2023-04-04T12:14:17;93518.31;;;23.59;50.85
31337;BME280;22846;42.654;23.314;2023-04-04T12:16:46;93540.09;;;23.68;50.70
31337;BME280;22846;42.654;23.314;2023-04-04T12:19:11;93532.69;;;23.69;50.99
31337;BME280;22846;42.654;23.314;2023-04-04T12:21:37;93531.19;;;23.68;50.98
31337;BME280;22846;42.654;23.314;2023-04-04T12:24:03;93527.84;;;23.64;50.91
31337;BME280;22846;42.654;23.314;2023-04-04T12:26:29;93545.13;;;23.70;50.80
31337;BME280;22846;42.654;23.314;2023-04-04T12:28:57;93547.06;;;23.69;50.45
31337;BME280;22846;42.654;23.314;2023-04-04T12:31:24;93546.31;;;23.69;50.46
31337;BME280;22846;42.654;23.314;2023-04-04T12:33:50;93541.47;;;23.64;50.30
31337;BME280;22846;42.654;23.314;2023-04-04T12:36:19;93540.25;;;23.65;50.75
31337;BME280;22846;42.654;23.314;2023-04-04T12:39:03;93547.53;;;23.68;50.42
31337;BME280;22846;42.654;23.314;2023-04-04T12:41:29;93549.97;;;23.66;50.37
31337;BME280;22846;42.654;23.314;2023-04-04T12:44:05;93550.91;;;23.63;50.66
31337;BME280;22846;42.654;23.314;2023-04-04T12:46:38;93558.13;;;23.66;50.32
31337;BME280;22846;42.654;23.314;2023-04-04T12:49:10;93540.44;;;23.52;50.70
31337;BME280;22846;42.654;23.314;2023-04-04T12:51:36;93553.91;;;23.65;50.76
31337;BME280;22846;42.654;23.314;2023-04-04T12:54:05;93555.09;;;23.64;50.68
31337;BME280;22846;42.654;23.314;2023-04-04T12:56:33;93558.31;;;23.62;50.32
31337;BME280;22846;42.654;23.314;2023-04-04T12:59:00;93556.78;;;23.61;50.57
31337;BME280;22846;42.654;23.314;2023-04-04T13:01:28;93569.22;;;23.62;50.58
31337;BME280;22846;42.654;23.314;2023-04-04T13:03:54;93561.03;;;23.62;50.64
31337;BME280;22846;42.654;23.314;2023-04-04T13:06:19;93575.13;;;23.61;50.26
31337;BME280;22846;42.654;23.314;2023-04-04T13:08:50;93568.91;;;23.60;50.26
31337;BME280;22846;42.654;23.314;2023-04-04T13:11:16;93557.72;;;23.49;50.64
31337;BME280;22846;42.654;23.314;2023-04-04T13:13:41;93580.59;;;23.61;50.22
31337;BME280;22846;42.654;23.314;2023-04-04T13:16:11;93586.47;;;23.59;50.68